Service Notice

This observation station is currently unavailable due to a loss of power in the area.

Work to restore the service will be undertaken as soon as it is safe to do so.

The Bureau's national resources allow our meteorologists to produce accurate and timely forecasts and warnings in areas without observations, including for the locations around this station site. Search for forcast by town, city, post code or lat/lon here or find the location on the MetEye map.

Latest Weather Observations for Cabramurra

IDN60801

Issued at 7:12 pm EST Wednesday 12 August 2020 (issued every 10 minutes, with the page automatically refreshed every 10 minutes)

About weather observations | Map of weather stations | Latest weather observations for NSW | Other Formats
Station Details ID: 072161 Name: CABRAMURRA SMHEA AWS Lat: -35.94 Lon: 148.38 Height: 1482.4 m
Data from the previous 72 hours. | See also: Recent months at Cabramurra
Date/Time
EST
Temp
°C
App
Temp
°C
Dew
Point
°C
Rel
Hum
%
Delta-T
°C
Wind Press
QNH
hPa
Press
MSL
hPa
Rain since
9am
mm
Dir  Spd
km/h
Gust
km/h
Spd
kts
Gust
kts
12/07:00pm 3.6 -1.0 3.6 100 0.0 NNW 17 24 9 13 - - 1.6
12/06:30pm 3.5 -1.7 3.5 100 0.0 N 20 28 11 15 - - 1.4
12/06:00pm 3.6 -1.4 3.6 100 0.0 NNW 19 24 10 13 - - 0.6
12/05:30pm 3.6 -1.0 3.6 100 0.0 NW 17 24 9 13 - - 0.4
12/05:00pm 3.6 -1.4 3.6 100 0.0 NNW 19 24 10 13 - - 0.2
12/04:30pm 3.4 -1.8 3.4 100 0.0 NNW 20 30 11 16 - - 0.2
12/04:00pm 3.4 -2.2 3.4 100 0.0 N 22 32 12 17 - - 0.2
12/03:30pm 3.3 -1.8 3.3 100 0.0 NNW 19 26 10 14 - - 0.0
12/03:00pm 3.3 -2.7 3.3 100 0.0 N 24 32 13 17 - - 0.0
12/02:30pm 3.2 -2.8 3.2 100 0.0 N 24 33 13 18 - - 0.0
12/02:00pm 3.1 -2.9 3.1 100 0.0 N 24 35 13 19 - - 0.0
12/01:30pm 3.0 -2.1 3.0 100 0.0 NNW 19 26 10 14 - - 0.0
12/01:00pm 2.8 -2.5 2.8 100 0.0 NNW 20 30 11 16 - - 0.0
12/12:30pm 2.7 -3.4 2.7 100 0.0 N 24 33 13 18 - - 0.0
12/12:00pm 3.3 -1.8 3.3 100 0.0 NNW 19 30 10 16 - - 0.0
12/11:30am 3.3 -1.8 3.3 100 0.0 NNW 19 26 10 14 - - 0.0
12/11:00am 2.8 -2.9 2.8 100 0.0 N 22 30 12 16 - - 0.0
12/10:30am 3.0 -2.1 3.0 100 0.0 NNW 19 28 10 15 - - 0.0
12/10:00am 2.8 -2.9 2.8 100 0.0 N 22 30 12 16 - - 0.0
12/09:30am 2.6 -2.8 2.6 100 0.0 NNW 20 28 11 15 - - 0.0
12/09:00am 2.4 -3.4 2.4 100 0.0 NNW 22 32 12 17 - - 0.0
12/08:30am 2.3 -3.5 2.2 99 0.0 NNW 22 35 12 19 - - 0.0
12/08:00am 2.4 -3.8 2.3 99 0.0 NNW 24 32 13 17 - - 0.0
12/07:30am 2.2 -3.3 2.1 99 0.0 NNW 20 30 11 16 - - 0.0
12/07:00am 2.1 -3.2 2.0 99 0.0 NNW 19 28 10 15 - - 0.0
12/06:30am 2.0 -3.3 1.9 99 0.0 N 19 28 10 15 - - 0.0
12/06:00am 2.0 -2.9 1.9 99 0.0 N 17 24 9 13 - - 0.0
12/05:30am 2.1 -3.2 2.0 99 0.0 N 19 28 10 15 - - 0.0
12/05:00am 2.0 -3.9 1.9 99 0.0 N 22 32 12 17 - - 0.0
12/04:30am 1.8 -3.5 1.7 99 0.0 N 19 26 10 14 - - 0.0
12/04:00am 1.9 -3.6 1.8 99 0.0 NNW 20 30 11 16 - - 0.0
12/03:30am 2.0 -3.3 1.9 99 0.0 NNW 19 26 10 14 - - 0.0
12/03:00am 2.2 -4.0 2.1 99 0.0 N 24 35 13 19 - - 0.0
12/02:30am 1.7 -3.7 1.1 96 0.3 NNE 19 26 10 14 - - 0.0
12/02:00am 1.6 -2.9 -0.5 86 0.8 N 13 17 7 9 - - 0.0
12/01:30am 1.0 -3.8 0.4 96 0.2 N 15 19 8 10 - - 0.0
12/01:00am 1.0 -3.3 0.9 99 0.0 N 13 17 7 9 - - 0.0
12/12:30am 1.3 -4.2 0.4 94 0.4 N 19 24 10 13 - - 0.0
12/12:00am 1.4 -3.8 0.4 93 0.4 N 17 20 9 11 - - 0.0
 
Date/Time
EST
Temp
°C
App
Temp
°C
Dew
Point
°C
Rel
Hum
%
Delta-T
°C
Wind Press
QNH
hPa
Press
MSL
hPa
Rain since
9am
mm
Dir  Spd
km/h
Gust
km/h
Spd
kts
Gust
kts
11/11:30pm 1.7 -3.5 0.2 90 0.6 NNE 17 22 9 12 - - 0.0
11/11:00pm 3.0 -2.9 -6.1 51 3.4 NNW 17 20 9 11 - - 0.0
11/10:30pm 5.1 -0.6 -12.8 26 5.8 N 13 20 7 11 - - 0.0
11/10:00pm 6.0 -0.6 -14.6 21 6.5 N 17 22 9 12 - - 0.0
11/09:30pm 6.5 -0.6 -17.5 16 7.1 NNE 19 30 10 16 - - 0.0
11/09:00pm 6.4 -0.6 -15.5 19 6.4 NNE 19 24 10 13 - - 0.0
11/08:30pm 6.2 -0.5 -16.3 18 6.8 NNE 17 26 9 14 - - 0.0
11/08:00pm 5.5 -0.9 -12.4 26 5.9 NE 17 22 9 12 - - 0.0
11/07:30pm 5.3 -1.0 -10.0 32 5.0 NE 17 22 9 12 - - 0.0
11/07:00pm 3.3 -1.3 -1.4 71 1.9 ENE 13 17 7 9 - - 0.0
11/06:30pm 2.1 -0.7 2.0 99 0.0 E 6 11 3 6 - - 0.0
11/06:00pm 2.4 0.4 2.3 99 0.0 WSW 2 9 1 5 - - 0.0
11/05:30pm 2.6 -1.5 2.5 99 0.0 W 13 19 7 10 - - 0.0
11/05:00pm 3.3 -0.6 3.2 99 0.0 W 13 19 7 10 - - 0.0
11/04:30pm 3.5 0.0 3.4 99 0.0 WNW 11 15 6 8 - - 0.0
11/04:00pm 4.2 0.3 3.2 93 0.5 WNW 13 20 7 11 - - 0.0
11/03:30pm 6.2 1.3 1.7 73 2.0 NW 17 22 9 12 - - 0.0
11/03:00pm 7.5 3.5 0.3 60 3.1 NNW 11 17 6 9 - - 0.0
11/02:30pm 7.7 3.4 -1.8 51 3.9 N 11 17 6 9 - - 0.0
11/02:00pm 6.3 2.0 0.8 68 2.4 NW 13 20 7 11 - - 0.0
11/01:30pm 7.8 2.7 -5.6 38 5.1 N 13 19 7 10 - - 0.0
11/01:00pm 7.0 0.9 -8.1 33 5.3 N 17 24 9 13 - - 0.0
11/12:30pm 7.4 3.4 -2.1 51 3.9 N 9 15 5 8 - - 0.0
11/12:00pm 8.6 3.7 -12.5 21 6.8 NNE 9 11 5 6 - - 0.0
11/11:30am 7.2 2.7 -6.5 37 5.0 NNE 9 13 5 7 - - 0.0
11/11:00am 6.3 1.6 -5.3 43 4.3 N 11 15 6 8 - - 0.0
11/10:30am 10.2 4.8 -13.7 17 7.7 N 11 13 6 7 - - 0.0
11/10:00am 10.3 4.9 -22.5 8 8.7 N 9 15 5 8 - - 0.0
11/09:30am 9.9 5.3 -14.0 17 7.6 N 7 9 4 5 - - 0.0
11/09:00am 9.6 5.3 -18.4 12 8.0 NE 4 11 2 6 - - 0.0
11/08:30am 7.4 3.8 -19.2 13 7.2 CALM 0 0 0 0 - - 0.0
11/08:00am 8.0 3.5 -24.2 8 7.9 E 4 7 2 4 - - 0.0
11/07:30am 6.1 1.4 -20.2 13 7.2 NNE 6 11 3 6 - - 0.0
11/07:00am 3.0 -0.2 -12.0 32 4.7 CALM 0 0 0 0 - - 0.0
11/06:30am 6.7 2.9 -28.3 6 8.1 CALM 0 0 0 0 - - 0.0
11/06:00am 7.2 3.5 -24.8 8 8.1 CALM 0 0 0 0 - - 0.0
11/05:30am 8.4 4.6 -27.1 6 8.2 CALM 0 0 0 0 - - 0.0
11/05:00am 7.6 3.8 -26.0 7 8.3 CALM 0 0 0 0 - - 0.0
11/04:30am 8.1 4.3 -29.2 5 8.7 CALM 0 0 0 0 - - 0.0
11/04:00am 8.3 3.4 -27.1 6 8.2 NNE 6 7 3 4 - - 0.0
11/03:30am 6.1 1.0 -14.5 21 6.5 E 9 11 5 6 - - 0.0
11/03:00am 4.7 -0.9 -11.4 30 5.3 SE 13 17 7 9 - - 0.0
11/02:30am 0.9 -5.8 -1.3 85 0.9 SSE 24 30 13 16 - - 0.0
11/02:00am 0.4 -4.9 -0.7 92 0.5 S 17 20 9 11 - - 0.0
11/01:30am 1.0 -3.9 -0.5 90 0.6 SW 15 20 8 11 - - 0.0
11/01:00am 1.3 -4.0 -0.3 89 0.6 SW 17 20 9 11 - - 0.0
11/12:30am 1.1 -3.8 -0.7 88 0.7 SW 15 17 8 9 - - 0.0
11/12:00am 1.1 -3.5 -1.3 84 0.9 SW 13 15 7 8 - - 0.0
 
Date/Time
EST
Temp
°C
App
Temp
°C
Dew
Point
°C
Rel
Hum
%
Delta-T
°C
Wind Press
QNH
hPa
Press
MSL
hPa
Rain since
9am
mm
Dir  Spd
km/h
Gust
km/h
Spd
kts
Gust
kts
10/11:30pm 1.5 -3.2 -2.1 77 1.4 SW 13 17 7 9 - - 0.0
10/11:00pm 1.6 -2.7 -1.8 78 1.3 SW 11 15 6 8 - - 0.0
10/10:30pm 1.1 -1.5 -5.1 63 2.3 CALM 0 0 0 0 - - 0.0
10/10:00pm 1.6 -2.4 -5.5 59 2.6 N 7 9 4 5 - - 0.0
10/09:30pm 2.6 -0.8 -9.3 41 4.0 SE 2 6 1 3 - - 0.0
10/09:00pm 1.8 -0.9 -5.8 57 2.8 CALM 0 7 0 4 - - 0.0
10/08:30pm 1.8 -1.6 -4.9 61 2.5 WNW 4 11 2 6 - - 0.0
10/08:00pm 1.7 -1.1 -3.0 71 1.9 SW 2 11 1 6 - - 0.0
10/07:30pm 1.4 -2.5 -1.2 83 1.0 ESE 9 13 5 7 - - 0.0
10/07:00pm 1.8 -1.7 -1.4 79 1.3 ESE 7 11 4 6 - - 0.0
10/06:30pm 1.6 -1.9 -1.0 83 1.0 ESE 7 13 4 7 - - 0.0
10/06:00pm 1.7 -2.5 -0.7 84 1.0 ESE 11 13 6 7 - - 0.0
10/05:30pm 2.4 -1.4 -0.9 79 1.3 ESE 9 17 5 9 - - 0.0
10/05:00pm 3.0 -1.9 -0.6 77 1.5 SE 15 22 8 12 - - 0.0
10/04:30pm 4.1 0.9 -0.7 71 2.0 SSE 6 11 3 6 - - 0.0
10/04:00pm 3.9 -1.4 -0.7 72 1.9 SE 17 28 9 15 - - 0.0
10/03:30pm 3.9 -1.5 -1.5 68 2.2 SE 17 28 9 15 - - 0.0
10/03:00pm 3.9 -1.8 -1.1 70 2.0 ESE 19 26 10 14 - - 0.0
10/02:30pm 3.8 -2.1 -0.8 72 1.9 SE 20 32 11 17 - - 0.0
10/02:00pm 3.7 -4.3 0.6 80 1.3 ESE 32 44 17 24 - - 0.0
10/01:30pm 3.0 -3.3 -1.2 74 1.7 SE 22 39 12 21 - - 0.0
10/01:00pm 2.9 -3.7 -0.5 78 1.4 SE 24 39 13 21 - - 0.0
10/12:47pm 2.7 -5.4 -0.6 79 1.3 ESE 32 50 17 27 - - 0.0
10/12:30pm 2.4 -6.8 -1.2 77 1.4 ESE 37 52 20 28 - - 0.0
10/12:00pm 2.0 -7.9 -0.9 81 1.2 SE 41 57 22 31 - - 0.0
10/11:52am 1.8 -7.4 -1.1 81 1.1 SE 37 56 20 30 - - 0.0
10/11:30am 1.6 -7.2 -1.3 81 1.1 SE 35 48 19 26 - - 0.0
10/11:00am 1.5 -6.7 -1.2 82 1.1 SE 32 43 17 23 - - 0.0
10/10:30am 1.1 -7.8 -1.6 82 1.0 SE 35 54 19 29 - - 0.0
10/10:09am 0.7 -9.0 -2.3 80 1.2 SE 39 61 21 33 - - 0.0
10/10:00am 0.7 -9.4 -2.7 78 1.3 SE 41 57 22 31 - - 0.0
10/09:30am 0.4 -9.3 -2.3 82 1.0 SE 39 57 21 31 - - 0.0
10/09:16am 0.5 -9.9 -1.9 84 0.9 SE 43 63 23 34 - - 0.0
10/09:15am 0.5 -9.9 -1.7 85 0.9 SE 43 63 23 34 - - 0.0
10/09:00am 0.3 -12.9 -2.6 81 1.1 ESE 57 76 31 41 - - 6.4
10/08:30am 0.1 -13.5 -2.8 81 1.1 ESE 59 78 32 42 - - 6.4
10/08:00am 0.1 -12.8 -2.3 84 0.9 ESE 56 78 30 42 - - 6.4
10/07:30am 0.0 -12.2 -2.4 84 0.9 ESE 52 74 28 40 - - 6.4
10/07:00am -0.3 -13.4 -2.3 86 0.7 ESE 57 91 31 49 - - 6.4
10/06:30am 0.0 -12.8 -1.3 91 0.5 ESE 56 78 30 42 - - 6.4
10/06:03am 0.2 -13.3 -2.3 83 1.0 ESE 59 78 32 42 - - 6.4
10/06:00am 0.2 -13.7 -2.2 84 0.9 ESE 61 76 33 41 - - 6.4
10/05:30am 0.3 -12.7 -1.6 87 0.7 ESE 57 82 31 44 - - 6.4
10/05:00am 0.4 -10.0 -0.3 95 0.3 ESE 44 70 24 38 - - 6.4
10/04:30am 0.5 -11.5 -1.3 88 0.7 ESE 52 74 28 40 - - 6.4
10/04:00am 0.6 -12.8 -1.6 85 0.9 ESE 59 82 32 44 - - 6.4
10/03:30am 0.8 -12.5 -0.6 90 0.6 ESE 59 80 32 43 - - 6.4
10/03:00am 0.7 -12.9 0.1 96 0.2 ESE 61 89 33 48 - - 6.4
10/02:30am 0.8 -12.4 -0.2 93 0.4 ESE 59 83 32 45 - - 6.4
10/02:00am 0.7 -12.2 -0.7 90 0.6 ESE 57 80 31 43 - - 6.4
10/01:30am 0.9 -13.9 -0.4 91 0.5 ESE 67 89 36 48 - - 6.4
10/01:00am 0.9 -13.1 -0.2 92 0.4 ESE 63 89 34 48 - - 6.4
10/12:30am 0.9 -11.6 0.5 97 0.2 ESE 56 80 30 43 - - 6.4
10/12:16am 0.7 -12.8 0.6 99 0.0 ESE 61 93 33 50 - - 6.4
10/12:00am 0.7 -14.5 0.6 99 0.0 ESE 70 96 38 52 - - 6.4
 
Date/Time
EST
Temp
°C
App
Temp
°C
Dew
Point
°C
Rel
Hum
%
Delta-T
°C
Wind Press
QNH
hPa
Press
MSL
hPa
Rain since
9am
mm
Dir  Spd
km/h
Gust
km/h
Spd
kts
Gust
kts
09/11:32pm 0.5 -13.4 0.4 99 0.0 ESE 63 85 34 46 - - 6.0
09/11:30pm 0.6 -13.3 0.5 99 0.0 ESE 63 80 34 43 - - 6.0
09/11:00pm 1.0 -11.7 0.9 99 0.0 SE 57 78 31 42 - - 5.8
09/10:30pm 1.2 -11.4 1.1 99 0.0 SE 57 80 31 43 - - 5.6
09/10:00pm 1.2 -10.1 1.1 99 0.0 SE 50 70 27 38 - - 5.4
09/09:35pm 1.0 -8.6 0.9 99 0.0 SE 41 59 22 32 - - 5.2
09/09:30pm 1.0 -8.3 0.9 99 0.0 SE 39 56 21 30 - - 5.2
09/09:05pm 1.1 -6.1 1.0 99 0.0 SE 28 50 15 27 - - 4.8
09/09:00pm 0.9 -6.3 0.8 99 0.0 SE 28 43 15 23 - - 4.8
09/08:46pm 1.0 -6.2 0.9 99 0.0 SSE 28 65 15 35 - - 4.6
09/08:30pm 0.8 -5.6 0.7 99 0.0 SSE 24 44 13 24 - - 4.4
09/08:00pm 1.2 -4.8 1.1 99 0.0 SE 22 44 12 24 - - 4.4
09/07:36pm 1.3 -6.6 1.2 99 0.0 SE 32 50 17 27 - - 4.4
09/07:30pm 1.2 -4.4 1.1 99 0.0 SE 20 39 11 21 - - 4.4

Other formats

Comma delimited format used in spreadsheet applications
http://www.bom.gov.au/fwo/IDN60801/IDN60801.95916.axf

JavaScript Object Notation format (JSON) in row-major order
http://www.bom.gov.au/fwo/IDN60801/IDN60801.95916.json

Data quality

Most of these data are generated automatically and are frequently updated. Quality checks on data are not normally performed. It is possible for incorrect values to appear. Refer to information at About Latest Weather Observations and please check the disclaimer before using these data.